Boston, Massachusetts
Traffic Map
Current Weather Conditions
Boston, Massachusetts
Overcast Drizzle
Overcast
51°
Feels Like: 51°
Wind Chill: 51° Ceiling: 900
Heat Index: 51° Visibility: 1.2mi
Dew Point: 50° Wind: 33mph
Humidity: 96% Direction: 30° (NNE)
Pressure: 29.87in Gusts: 43mph
Raw Report DataKBOS 222154Z 03029G37KT 1 1/4SM -DZ BR OVC009 11/10 A2987 RMK AO2 PK WND 02044/2113 TWR VIS 2 SLP114 P0002 T01060100
Traffic Incident Summary
Active as of:
Severity:
Category:
InformationThere was an issue retrieving the traffic information for this location. Please try a different location or try again shortly.
Advertisements
Track Severe Weather on mobile